sensor_id;sensor_type;location;lat;lon;timestamp;P1;durP1;ratioP1;P2;durP2;ratioP2
17091;SDS011;8661;45.700;4.880;2024-03-22T00:00:36;6.67;;;4.60;;
17091;SDS011;8661;45.700;4.880;2024-03-22T00:03:02;6.43;;;4.97;;
17091;SDS011;8661;45.700;4.880;2024-03-22T00:05:30;7.50;;;5.40;;
17091;SDS011;8661;45.700;4.880;2024-03-22T00:07:56;8.93;;;5.13;;
17091;SDS011;8661;45.700;4.880;2024-03-22T00:10:22;10.87;;;5.07;;
17091;SDS011;8661;45.700;4.880;2024-03-22T00:12:48;6.10;;;4.27;;
17091;SDS011;8661;45.700;4.880;2024-03-22T00:15:16;9.67;;;5.67;;
17091;SDS011;8661;45.700;4.880;2024-03-22T00:17:44;7.73;;;5.23;;
17091;SDS011;8661;45.700;4.880;2024-03-22T00:20:11;6.00;;;4.87;;
17091;SDS011;8661;45.700;4.880;2024-03-22T00:22:37;6.13;;;4.33;;
17091;SDS011;8661;45.700;4.880;2024-03-22T00:25:04;12.33;;;6.20;;
17091;SDS011;8661;45.700;4.880;2024-03-22T00:27:31;10.27;;;6.43;;
17091;SDS011;8661;45.700;4.880;2024-03-22T00:29:58;10.10;;;6.50;;
17091;SDS011;8661;45.700;4.880;2024-03-22T00:32:24;11.60;;;8.83;;
17091;SDS011;8661;45.700;4.880;2024-03-22T00:34:52;13.07;;;10.43;;
17091;SDS011;8661;45.700;4.880;2024-03-22T00:37:18;12.37;;;9.13;;
17091;SDS011;8661;45.700;4.880;2024-03-22T00:39:45;13.13;;;9.23;;
17091;SDS011;8661;45.700;4.880;2024-03-22T00:42:11;12.13;;;9.30;;
17091;SDS011;8661;45.700;4.880;2024-03-22T00:44:38;13.37;;;9.07;;
17091;SDS011;8661;45.700;4.880;2024-03-22T00:47:04;14.57;;;9.27;;
17091;SDS011;8661;45.700;4.880;2024-03-22T00:49:31;14.10;;;8.87;;
17091;SDS011;8661;45.700;4.880;2024-03-22T00:51:58;11.97;;;8.87;;
17091;SDS011;8661;45.700;4.880;2024-03-22T00:54:25;10.47;;;8.13;;
17091;SDS011;8661;45.700;4.880;2024-03-22T00:56:52;14.10;;;8.13;;
17091;SDS011;8661;45.700;4.880;2024-03-22T00:59:19;11.63;;;7.43;;
17091;SDS011;8661;45.700;4.880;2024-03-22T01:01:45;11.00;;;7.20;;
17091;SDS011;8661;45.700;4.880;2024-03-22T01:04:12;9.43;;;6.53;;
17091;SDS011;8661;45.700;4.880;2024-03-22T01:06:38;10.77;;;6.33;;
17091;SDS011;8661;45.700;4.880;2024-03-22T01:09:06;15.87;;;7.33;;
17091;SDS011;8661;45.700;4.880;2024-03-22T01:11:32;11.87;;;6.80;;
17091;SDS011;8661;45.700;4.880;2024-03-22T01:13:59;9.87;;;6.50;;
17091;SDS011;8661;45.700;4.880;2024-03-22T01:16:25;9.53;;;6.40;;
17091;SDS011;8661;45.700;4.880;2024-03-22T01:18:52;10.93;;;6.43;;
17091;SDS011;8661;45.700;4.880;2024-03-22T01:21:18;11.40;;;7.00;;
17091;SDS011;8661;45.700;4.880;2024-03-22T01:23:50;12.00;;;6.67;;
17091;SDS011;8661;45.700;4.880;2024-03-22T01:26:17;10.00;;;6.57;;
17091;SDS011;8661;45.700;4.880;2024-03-22T01:28:44;12.87;;;6.50;;
17091;SDS011;8661;45.700;4.880;2024-03-22T01:31:11;11.67;;;6.57;;
17091;SDS011;8661;45.700;4.880;2024-03-22T01:33:38;10.97;;;7.33;;
17091;SDS011;8661;45.700;4.880;2024-03-22T01:36:04;10.13;;;6.43;;
17091;SDS011;8661;45.700;4.880;2024-03-22T01:38:31;9.60;;;6.30;;
17091;SDS011;8661;45.700;4.880;2024-03-22T01:40:57;12.40;;;6.17;;
17091;SDS011;8661;45.700;4.880;2024-03-22T01:43:25;7.87;;;6.40;;
17091;SDS011;8661;45.700;4.880;2024-03-22T01:45:51;9.00;;;6.07;;
17091;SDS011;8661;45.700;4.880;2024-03-22T01:48:18;8.80;;;6.13;;
17091;SDS011;8661;45.700;4.880;2024-03-22T01:50:45;7.40;;;5.77;;
17091;SDS011;8661;45.700;4.880;2024-03-22T01:53:12;8.87;;;6.30;;
17091;SDS011;8661;45.700;4.880;2024-03-22T01:55:38;9.10;;;5.60;;
17091;SDS011;8661;45.700;4.880;2024-03-22T01:58:05;9.80;;;5.90;;
17091;SDS011;8661;45.700;4.880;2024-03-22T02:00:34;12.43;;;6.37;;
17091;SDS011;8661;45.700;4.880;2024-03-22T02:03:00;7.67;;;5.67;;
17091;SDS011;8661;45.700;4.880;2024-03-22T02:05:26;8.93;;;6.67;;
17091;SDS011;8661;45.700;4.880;2024-03-22T02:07:53;11.90;;;6.00;;
17091;SDS011;8661;45.700;4.880;2024-03-22T02:10:19;11.40;;;6.33;;
17091;SDS011;8661;45.700;4.880;2024-03-22T02:12:46;9.20;;;6.13;;
17091;SDS011;8661;45.700;4.880;2024-03-22T02:15:12;10.43;;;5.97;;
17091;SDS011;8661;45.700;4.880;2024-03-22T02:17:41;10.07;;;6.03;;
17091;SDS011;8661;45.700;4.880;2024-03-22T02:20:07;10.73;;;6.03;;
17091;SDS011;8661;45.700;4.880;2024-03-22T02:22:35;9.63;;;5.83;;
17091;SDS011;8661;45.700;4.880;2024-03-22T02:25:02;9.97;;;5.40;;
17091;SDS011;8661;45.700;4.880;2024-03-22T02:27:30;9.67;;;5.60;;
17091;SDS011;8661;45.700;4.880;2024-03-22T02:29:56;13.47;;;6.43;;
17091;SDS011;8661;45.700;4.880;2024-03-22T02:32:23;9.80;;;5.70;;
17091;SDS011;8661;45.700;4.880;2024-03-22T02:34:49;8.20;;;6.03;;
17091;SDS011;8661;45.700;4.880;2024-03-22T02:37:16;10.57;;;5.77;;
17091;SDS011;8661;45.700;4.880;2024-03-22T02:39:42;10.73;;;5.57;;
17091;SDS011;8661;45.700;4.880;2024-03-22T02:42:10;8.53;;;6.00;;
17091;SDS011;8661;45.700;4.880;2024-03-22T02:44:36;10.53;;;5.83;;
17091;SDS011;8661;45.700;4.880;2024-03-22T02:47:07;12.57;;;6.03;;
17091;SDS011;8661;45.700;4.880;2024-03-22T02:49:33;10.70;;;6.10;;
17091;SDS011;8661;45.700;4.880;2024-03-22T02:52:00;8.10;;;5.87;;
17091;SDS011;8661;45.700;4.880;2024-03-22T02:54:26;8.77;;;6.03;;
17091;SDS011;8661;45.700;4.880;2024-03-22T02:56:53;7.10;;;5.53;;
17091;SDS011;8661;45.700;4.880;2024-03-22T02:59:21;13.90;;;6.07;;
17091;SDS011;8661;45.700;4.880;2024-03-22T03:01:47;9.63;;;5.60;;
17091;SDS011;8661;45.700;4.880;2024-03-22T03:04:13;10.00;;;5.93;;
17091;SDS011;8661;45.700;4.880;2024-03-22T03:06:40;11.07;;;6.40;;
17091;SDS011;8661;45.700;4.880;2024-03-22T03:09:06;8.73;;;5.70;;
17091;SDS011;8661;45.700;4.880;2024-03-22T03:11:37;11.80;;;7.00;;
17091;SDS011;8661;45.700;4.880;2024-03-22T03:14:03;9.80;;;6.40;;
17091;SDS011;8661;45.700;4.880;2024-03-22T03:16:31;10.70;;;6.17;;
17091;SDS011;8661;45.700;4.880;2024-03-22T03:18:57;8.87;;;5.73;;
17091;SDS011;8661;45.700;4.880;2024-03-22T03:21:24;9.20;;;5.37;;
17091;SDS011;8661;45.700;4.880;2024-03-22T03:23:50;9.37;;;6.07;;
17091;SDS011;8661;45.700;4.880;2024-03-22T03:26:17;8.03;;;6.00;;
17091;SDS011;8661;45.700;4.880;2024-03-22T03:28:43;8.83;;;5.97;;
17091;SDS011;8661;45.700;4.880;2024-03-22T03:31:10;11.93;;;5.93;;
17091;SDS011;8661;45.700;4.880;2024-03-22T03:33:37;9.03;;;5.60;;
17091;SDS011;8661;45.700;4.880;2024-03-22T03:36:04;8.73;;;5.70;;
17091;SDS011;8661;45.700;4.880;2024-03-22T03:38:30;12.43;;;5.73;;
17091;SDS011;8661;45.700;4.880;2024-03-22T03:40:57;9.07;;;5.87;;
17091;SDS011;8661;45.700;4.880;2024-03-22T03:43:23;9.47;;;5.50;;
17091;SDS011;8661;45.700;4.880;2024-03-22T03:45:50;12.13;;;5.43;;
17091;SDS011;8661;45.700;4.880;2024-03-22T03:48:16;9.53;;;6.30;;
17091;SDS011;8661;45.700;4.880;2024-03-22T03:50:51;8.63;;;5.77;;
17091;SDS011;8661;45.700;4.880;2024-03-22T03:53:18;10.33;;;5.90;;
17091;SDS011;8661;45.700;4.880;2024-03-22T03:55:45;7.97;;;5.80;;
17091;SDS011;8661;45.700;4.880;2024-03-22T03:58:11;8.20;;;5.50;;
17091;SDS011;8661;45.700;4.880;2024-03-22T04:00:38;14.70;;;6.27;;
17091;SDS011;8661;45.700;4.880;2024-03-22T04:03:04;11.17;;;5.20;;
17091;SDS011;8661;45.700;4.880;2024-03-22T04:05:31;9.10;;;5.27;;
17091;SDS011;8661;45.700;4.880;2024-03-22T04:07:59;9.73;;;5.30;;
17091;SDS011;8661;45.700;4.880;2024-03-22T04:10:26;19.13;;;5.80;;
17091;SDS011;8661;45.700;4.880;2024-03-22T04:12:52;10.50;;;5.93;;
17091;SDS011;8661;45.700;4.880;2024-03-22T04:15:18;12.37;;;6.67;;
17091;SDS011;8661;45.700;4.880;2024-03-22T04:17:45;11.07;;;6.70;;
17091;SDS011;8661;45.700;4.880;2024-03-22T04:20:11;10.93;;;6.23;;
17091;SDS011;8661;45.700;4.880;2024-03-22T04:22:38;12.27;;;5.90;;
17091;SDS011;8661;45.700;4.880;2024-03-22T04:25:06;9.87;;;6.07;;
17091;SDS011;8661;45.700;4.880;2024-03-22T04:27:35;9.13;;;6.17;;
17091;SDS011;8661;45.700;4.880;2024-03-22T04:30:02;11.57;;;6.73;;
17091;SDS011;8661;45.700;4.880;2024-03-22T04:32:28;10.50;;;5.93;;
17091;SDS011;8661;45.700;4.880;2024-03-22T04:34:55;10.37;;;6.30;;
17091;SDS011;8661;45.700;4.880;2024-03-22T04:37:21;9.17;;;5.77;;
17091;SDS011;8661;45.700;4.880;2024-03-22T04:39:48;9.00;;;5.60;;
17091;SDS011;8661;45.700;4.880;2024-03-22T04:42:17;10.37;;;6.00;;
17091;SDS011;8661;45.700;4.880;2024-03-22T04:44:43;7.47;;;5.63;;
17091;SDS011;8661;45.700;4.880;2024-03-22T04:47:10;15.13;;;7.03;;
17091;SDS011;8661;45.700;4.880;2024-03-22T04:49:37;12.53;;;6.03;;
17091;SDS011;8661;45.700;4.880;2024-03-22T04:52:03;13.70;;;6.80;;
17091;SDS011;8661;45.700;4.880;2024-03-22T04:54:30;11.27;;;6.30;;
17091;SDS011;8661;45.700;4.880;2024-03-22T04:56:56;8.83;;;6.30;;
17091;SDS011;8661;45.700;4.880;2024-03-22T04:59:25;8.97;;;6.23;;
17091;SDS011;8661;45.700;4.880;2024-03-22T05:01:51;10.63;;;6.27;;
17091;SDS011;8661;45.700;4.880;2024-03-22T05:04:18;16.00;;;6.80;;
17091;SDS011;8661;45.700;4.880;2024-03-22T05:06:44;14.50;;;7.53;;
17091;SDS011;8661;45.700;4.880;2024-03-22T05:09:11;10.07;;;6.53;;
17091;SDS011;8661;45.700;4.880;2024-03-22T05:11:37;12.00;;;6.30;;
17091;SDS011;8661;45.700;4.880;2024-03-22T05:14:04;11.00;;;6.83;;
17091;SDS011;8661;45.700;4.880;2024-03-22T05:16:31;10.70;;;6.87;;
17091;SDS011;8661;45.700;4.880;2024-03-22T05:18:59;8.37;;;6.30;;
17091;SDS011;8661;45.700;4.880;2024-03-22T05:21:25;10.27;;;6.47;;
17091;SDS011;8661;45.700;4.880;2024-03-22T05:23:52;8.63;;;6.23;;
17091;SDS011;8661;45.700;4.880;2024-03-22T05:26:18;10.50;;;5.97;;
17091;SDS011;8661;45.700;4.880;2024-03-22T05:28:46;9.70;;;6.03;;
17091;SDS011;8661;45.700;4.880;2024-03-22T05:31:12;11.07;;;6.00;;
17091;SDS011;8661;45.700;4.880;2024-03-22T05:33:40;10.90;;;5.67;;
17091;SDS011;8661;45.700;4.880;2024-03-22T05:36:06;10.80;;;6.40;;
17091;SDS011;8661;45.700;4.880;2024-03-22T05:38:33;9.97;;;6.17;;
17091;SDS011;8661;45.700;4.880;2024-03-22T05:41:03;12.93;;;5.90;;
17091;SDS011;8661;45.700;4.880;2024-03-22T05:43:30;12.80;;;6.37;;
17091;SDS011;8661;45.700;4.880;2024-03-22T05:45:56;13.00;;;6.23;;
17091;SDS011;8661;45.700;4.880;2024-03-22T05:48:26;12.03;;;6.93;;
17091;SDS011;8661;45.700;4.880;2024-03-22T05:53:50;9.40;;;6.63;;
17091;SDS011;8661;45.700;4.880;2024-03-22T05:56:19;10.90;;;6.03;;
17091;SDS011;8661;45.700;4.880;2024-03-22T05:58:46;11.83;;;5.73;;
17091;SDS011;8661;45.700;4.880;2024-03-22T06:01:12;9.47;;;6.27;;
17091;SDS011;8661;45.700;4.880;2024-03-22T06:03:39;7.90;;;5.57;;
17091;SDS011;8661;45.700;4.880;2024-03-22T06:06:05;10.20;;;6.47;;
17091;SDS011;8661;45.700;4.880;2024-03-22T06:08:33;11.60;;;6.73;;
17091;SDS011;8661;45.700;4.880;2024-03-22T06:11:01;10.90;;;6.10;;
17091;SDS011;8661;45.700;4.880;2024-03-22T06:13:28;11.97;;;6.00;;
17091;SDS011;8661;45.700;4.880;2024-03-22T06:15:55;9.93;;;6.10;;
17091;SDS011;8661;45.700;4.880;2024-03-22T06:18:22;10.30;;;6.17;;
17091;SDS011;8661;45.700;4.880;2024-03-22T06:20:48;10.63;;;6.10;;
17091;SDS011;8661;45.700;4.880;2024-03-22T06:23:20;9.60;;;5.70;;
17091;SDS011;8661;45.700;4.880;2024-03-22T06:25:51;10.30;;;5.77;;
17091;SDS011;8661;45.700;4.880;2024-03-22T06:28:22;9.97;;;5.97;;
17091;SDS011;8661;45.700;4.880;2024-03-22T06:30:48;10.27;;;5.50;;
17091;SDS011;8661;45.700;4.880;2024-03-22T06:33:23;13.73;;;5.80;;
17091;SDS011;8661;45.700;4.880;2024-03-22T06:35:53;9.13;;;5.77;;
17091;SDS011;8661;45.700;4.880;2024-03-22T06:38:22;7.67;;;5.27;;
17091;SDS011;8661;45.700;4.880;2024-03-22T06:40:48;8.53;;;5.27;;
17091;SDS011;8661;45.700;4.880;2024-03-22T06:43:15;8.07;;;5.03;;
17091;SDS011;8661;45.700;4.880;2024-03-22T06:45:42;7.33;;;4.87;;
17091;SDS011;8661;45.700;4.880;2024-03-22T06:48:09;5.97;;;4.80;;
17091;SDS011;8661;45.700;4.880;2024-03-22T06:50:35;7.67;;;5.13;;
17091;SDS011;8661;45.700;4.880;2024-03-22T06:53:02;8.00;;;4.73;;
17091;SDS011;8661;45.700;4.880;2024-03-22T06:55:28;8.73;;;5.27;;
17091;SDS011;8661;45.700;4.880;2024-03-22T06:57:55;7.63;;;4.80;;
17091;SDS011;8661;45.700;4.880;2024-03-22T07:00:21;8.00;;;4.73;;
17091;SDS011;8661;45.700;4.880;2024-03-22T07:02:53;6.13;;;4.57;;
17091;SDS011;8661;45.700;4.880;2024-03-22T07:05:20;7.53;;;4.37;;
17091;SDS011;8661;45.700;4.880;2024-03-22T07:07:48;6.60;;;4.00;;
17091;SDS011;8661;45.700;4.880;2024-03-22T07:10:21;5.27;;;4.00;;
17091;SDS011;8661;45.700;4.880;2024-03-22T07:12:53;12.07;;;4.47;;
17091;SDS011;8661;45.700;4.880;2024-03-22T07:15:19;6.53;;;4.50;;
17091;SDS011;8661;45.700;4.880;2024-03-22T07:17:47;8.10;;;4.13;;
17091;SDS011;8661;45.700;4.880;2024-03-22T07:20:14;8.13;;;5.57;;
17091;SDS011;8661;45.700;4.880;2024-03-22T07:22:41;8.57;;;4.53;;
17091;SDS011;8661;45.700;4.880;2024-03-22T07:25:08;5.87;;;4.37;;
17091;SDS011;8661;45.700;4.880;2024-03-22T07:27:35;8.53;;;5.50;;
17091;SDS011;8661;45.700;4.880;2024-03-22T07:30:01;10.17;;;5.73;;
17091;SDS011;8661;45.700;4.880;2024-03-22T07:32:30;8.67;;;5.30;;
17091;SDS011;8661;45.700;4.880;2024-03-22T07:34:56;10.83;;;6.80;;
17091;SDS011;8661;45.700;4.880;2024-03-22T07:37:25;9.10;;;6.30;;
17091;SDS011;8661;45.700;4.880;2024-03-22T07:39:51;11.40;;;6.23;;
17091;SDS011;8661;45.700;4.880;2024-03-22T07:42:18;7.80;;;5.43;;
17091;SDS011;8661;45.700;4.880;2024-03-22T07:44:44;7.57;;;5.60;;
17091;SDS011;8661;45.700;4.880;2024-03-22T07:47:11;7.20;;;5.33;;
17091;SDS011;8661;45.700;4.880;2024-03-22T07:49:37;10.83;;;6.27;;
17091;SDS011;8661;45.700;4.880;2024-03-22T07:52:04;10.37;;;5.47;;
17091;SDS011;8661;45.700;4.880;2024-03-22T07:54:32;13.07;;;5.60;;
17091;SDS011;8661;45.700;4.880;2024-03-22T07:56:59;8.53;;;5.37;;
17091;SDS011;8661;45.700;4.880;2024-03-22T07:59:25;8.83;;;5.50;;
17091;SDS011;8661;45.700;4.880;2024-03-22T08:01:52;11.53;;;5.43;;
17091;SDS011;8661;45.700;4.880;2024-03-22T08:04:18;12.83;;;4.70;;
17091;SDS011;8661;45.700;4.880;2024-03-22T08:06:45;10.03;;;5.13;;
17091;SDS011;8661;45.700;4.880;2024-03-22T08:09:11;6.00;;;4.50;;
17091;SDS011;8661;45.700;4.880;2024-03-22T08:11:40;9.30;;;5.60;;
17091;SDS011;8661;45.700;4.880;2024-03-22T08:14:05;9.23;;;4.50;;
17091;SDS011;8661;45.700;4.880;2024-03-22T08:16:32;8.40;;;4.83;;
17091;SDS011;8661;45.700;4.880;2024-03-22T08:18:59;6.87;;;4.73;;
17091;SDS011;8661;45.700;4.880;2024-03-22T08:21:28;8.43;;;4.93;;
17091;SDS011;8661;45.700;4.880;2024-03-22T08:23:54;10.47;;;4.83;;
17091;SDS011;8661;45.700;4.880;2024-03-22T08:26:21;8.00;;;4.90;;
17091;SDS011;8661;45.700;4.880;2024-03-22T08:28:48;8.73;;;4.73;;
17091;SDS011;8661;45.700;4.880;2024-03-22T08:31:17;9.53;;;5.03;;
17091;SDS011;8661;45.700;4.880;2024-03-22T08:33:46;9.73;;;4.83;;
17091;SDS011;8661;45.700;4.880;2024-03-22T08:36:13;8.13;;;5.33;;
17091;SDS011;8661;45.700;4.880;2024-03-22T08:38:39;9.63;;;4.67;;
17091;SDS011;8661;45.700;4.880;2024-03-22T08:41:06;8.57;;;4.63;;
17091;SDS011;8661;45.700;4.880;2024-03-22T08:43:32;7.17;;;4.97;;
17091;SDS011;8661;45.700;4.880;2024-03-22T08:46:01;9.20;;;4.97;;
17091;SDS011;8661;45.700;4.880;2024-03-22T08:48:28;10.93;;;4.80;;
17091;SDS011;8661;45.700;4.880;2024-03-22T08:50:55;11.37;;;5.40;;
17091;SDS011;8661;45.700;4.880;2024-03-22T08:53:21;10.33;;;4.97;;
17091;SDS011;8661;45.700;4.880;2024-03-22T08:55:50;10.77;;;5.27;;
17091;SDS011;8661;45.700;4.880;2024-03-22T08:58:16;7.33;;;4.83;;
17091;SDS011;8661;45.700;4.880;2024-03-22T09:00:43;15.73;;;4.90;;
17091;SDS011;8661;45.700;4.880;2024-03-22T09:03:10;14.70;;;6.33;;
17091;SDS011;8661;45.700;4.880;2024-03-22T09:05:38;9.20;;;4.97;;
17091;SDS011;8661;45.700;4.880;2024-03-22T09:08:04;11.03;;;5.70;;
17091;SDS011;8661;45.700;4.880;2024-03-22T09:10:32;11.17;;;5.63;;
17091;SDS011;8661;45.700;4.880;2024-03-22T09:12:59;10.90;;;5.03;;
17091;SDS011;8661;45.700;4.880;2024-03-22T09:15:24;8.90;;;5.40;;
17091;SDS011;8661;45.700;4.880;2024-03-22T09:17:51;10.40;;;5.57;;
17091;SDS011;8661;45.700;4.880;2024-03-22T09:20:20;14.70;;;5.43;;
17091;SDS011;8661;45.700;4.880;2024-03-22T09:22:48;17.50;;;5.60;;
17091;SDS011;8661;45.700;4.880;2024-03-22T09:25:16;9.63;;;4.60;;
17091;SDS011;8661;45.700;4.880;2024-03-22T09:27:48;8.60;;;4.77;;
17091;SDS011;8661;45.700;4.880;2024-03-22T09:30:23;7.87;;;4.87;;
17091;SDS011;8661;45.700;4.880;2024-03-22T09:32:49;7.30;;;4.70;;
17091;SDS011;8661;45.700;4.880;2024-03-22T09:35:18;7.83;;;4.50;;
17091;SDS011;8661;45.700;4.880;2024-03-22T09:37:44;9.07;;;4.77;;
17091;SDS011;8661;45.700;4.880;2024-03-22T09:40:12;15.20;;;6.07;;
17091;SDS011;8661;45.700;4.880;2024-03-22T09:42:38;11.40;;;5.50;;
17091;SDS011;8661;45.700;4.880;2024-03-22T09:45:08;13.57;;;5.50;;
17091;SDS011;8661;45.700;4.880;2024-03-22T09:47:36;15.03;;;5.70;;
17091;SDS011;8661;45.700;4.880;2024-03-22T09:50:03;9.43;;;5.60;;
17091;SDS011;8661;45.700;4.880;2024-03-22T09:52:34;9.63;;;5.47;;
17091;SDS011;8661;45.700;4.880;2024-03-22T09:55:04;6.90;;;4.37;;
17091;SDS011;8661;45.700;4.880;2024-03-22T09:57:34;10.60;;;4.83;;
17091;SDS011;8661;45.700;4.880;2024-03-22T10:00:05;8.37;;;3.93;;
17091;SDS011;8661;45.700;4.880;2024-03-22T10:02:32;7.53;;;4.30;;
17091;SDS011;8661;45.700;4.880;2024-03-22T10:05:00;10.30;;;4.60;;
17091;SDS011;8661;45.700;4.880;2024-03-22T10:07:27;11.20;;;3.90;;
17091;SDS011;8661;45.700;4.880;2024-03-22T10:09:58;5.03;;;3.97;;
17091;SDS011;8661;45.700;4.880;2024-03-22T10:12:24;9.33;;;4.47;;
17091;SDS011;8661;45.700;4.880;2024-03-22T10:14:52;6.73;;;5.00;;
17091;SDS011;8661;45.700;4.880;2024-03-22T10:17:18;11.87;;;5.67;;
17091;SDS011;8661;45.700;4.880;2024-03-22T10:19:48;9.77;;;4.87;;
17091;SDS011;8661;45.700;4.880;2024-03-22T10:22:15;8.38;;;4.63;;
17091;SDS011;8661;45.700;4.880;2024-03-22T10:24:42;7.35;;;4.28;;
17091;SDS011;8661;45.700;4.880;2024-03-22T10:27:10;7.95;;;4.05;;
17091;SDS011;8661;45.700;4.880;2024-03-22T10:29:37;6.45;;;4.75;;
17091;SDS011;8661;45.700;4.880;2024-03-22T10:32:03;12.77;;;5.07;;
17091;SDS011;8661;45.700;4.880;2024-03-22T10:34:31;7.60;;;4.10;;
17091;SDS011;8661;45.700;4.880;2024-03-22T10:36:58;8.60;;;4.70;;
17091;SDS011;8661;45.700;4.880;2024-03-22T10:39:26;9.70;;;4.68;;
17091;SDS011;8661;45.700;4.880;2024-03-22T10:41:53;14.13;;;4.80;;
17091;SDS011;8661;45.700;4.880;2024-03-22T10:44:22;7.97;;;3.72;;
17091;SDS011;8661;45.700;4.880;2024-03-22T10:46:48;6.35;;;3.55;;
17091;SDS011;8661;45.700;4.880;2024-03-22T10:49:17;6.90;;;3.60;;
17091;SDS011;8661;45.700;4.880;2024-03-22T10:51:46;7.10;;;4.03;;
17091;SDS011;8661;45.700;4.880;2024-03-22T10:54:17;6.13;;;3.90;;
17091;SDS011;8661;45.700;4.880;2024-03-22T10:56:45;6.85;;;3.97;;
17091;SDS011;8661;45.700;4.880;2024-03-22T10:59:13;6.10;;;3.58;;
17091;SDS011;8661;45.700;4.880;2024-03-22T11:01:44;8.25;;;3.70;;
17091;SDS011;8661;45.700;4.880;2024-03-22T11:04:12;6.43;;;3.08;;
17091;SDS011;8661;45.700;4.880;2024-03-22T11:06:38;7.53;;;2.70;;
17091;SDS011;8661;45.700;4.880;2024-03-22T11:09:05;2.60;;;2.08;;
17091;SDS011;8661;45.700;4.880;2024-03-22T11:11:31;8.35;;;2.33;;
17091;SDS011;8661;45.700;4.880;2024-03-22T11:14:02;5.95;;;1.85;;
17091;SDS011;8661;45.700;4.880;2024-03-22T11:16:28;3.05;;;2.00;;
17091;SDS011;8661;45.700;4.880;2024-03-22T11:18:57;3.58;;;2.10;;
17091;SDS011;8661;45.700;4.880;2024-03-22T11:21:23;5.13;;;2.20;;
17091;SDS011;8661;45.700;4.880;2024-03-22T11:23:50;6.50;;;2.03;;
17091;SDS011;8661;45.700;4.880;2024-03-22T11:26:16;4.28;;;1.90;;
17091;SDS011;8661;45.700;4.880;2024-03-22T11:28:43;2.92;;;1.45;;
17091;SDS011;8661;45.700;4.880;2024-03-22T11:31:09;8.48;;;1.80;;
17091;SDS011;8661;45.700;4.880;2024-03-22T11:33:37;3.58;;;1.95;;
17091;SDS011;8661;45.700;4.880;2024-03-22T11:36:05;4.72;;;1.80;;
17091;SDS011;8661;45.700;4.880;2024-03-22T11:38:33;4.93;;;1.95;;
17091;SDS011;8661;45.700;4.880;2024-03-22T11:40:59;2.83;;;1.70;;
17091;SDS011;8661;45.700;4.880;2024-03-22T11:43:27;3.50;;;1.92;;
17091;SDS011;8661;45.700;4.880;2024-03-22T11:45:54;4.50;;;1.67;;
17091;SDS011;8661;45.700;4.880;2024-03-22T11:48:22;6.38;;;2.00;;
17091;SDS011;8661;45.700;4.880;2024-03-22T11:50:49;4.07;;;1.90;;
17091;SDS011;8661;45.700;4.880;2024-03-22T11:53:17;3.85;;;1.80;;
17091;SDS011;8661;45.700;4.880;2024-03-22T11:55:43;2.40;;;1.67;;
17091;SDS011;8661;45.700;4.880;2024-03-22T11:58:10;3.75;;;2.25;;
17091;SDS011;8661;45.700;4.880;2024-03-22T12:00:36;6.97;;;2.10;;
17091;SDS011;8661;45.700;4.880;2024-03-22T12:03:03;2.40;;;2.00;;
17091;SDS011;8661;45.700;4.880;2024-03-22T12:05:31;4.25;;;1.98;;
17091;SDS011;8661;45.700;4.880;2024-03-22T12:07:58;4.43;;;2.15;;
17091;SDS011;8661;45.700;4.880;2024-03-22T12:10:25;3.67;;;1.83;;
17091;SDS011;8661;45.700;4.880;2024-03-22T12:12:52;3.28;;;1.50;;
17091;SDS011;8661;45.700;4.880;2024-03-22T12:15:19;3.30;;;1.70;;
17091;SDS011;8661;45.700;4.880;2024-03-22T12:17:46;4.43;;;1.83;;
17091;SDS011;8661;45.700;4.880;2024-03-22T12:20:12;4.00;;;1.67;;
17091;SDS011;8661;45.700;4.880;2024-03-22T12:22:40;3.22;;;2.00;;
17091;SDS011;8661;45.700;4.880;2024-03-22T12:25:07;7.75;;;2.05;;
17091;SDS011;8661;45.700;4.880;2024-03-22T12:27:36;2.38;;;1.70;;
17091;SDS011;8661;45.700;4.880;2024-03-22T12:30:02;4.63;;;2.10;;
17091;SDS011;8661;45.700;4.880;2024-03-22T12:32:31;5.43;;;1.92;;
17091;SDS011;8661;45.700;4.880;2024-03-22T12:34:57;4.10;;;2.00;;
17091;SDS011;8661;45.700;4.880;2024-03-22T12:37:24;5.10;;;2.20;;
17091;SDS011;8661;45.700;4.880;2024-03-22T12:39:50;4.78;;;2.38;;
17091;SDS011;8661;45.700;4.880;2024-03-22T12:42:17;3.95;;;1.90;;
17091;SDS011;8661;45.700;4.880;2024-03-22T12:44:44;5.10;;;2.25;;
17091;SDS011;8661;45.700;4.880;2024-03-22T12:47:11;3.35;;;1.77;;
17091;SDS011;8661;45.700;4.880;2024-03-22T12:49:37;2.17;;;1.90;;
17091;SDS011;8661;45.700;4.880;2024-03-22T12:52:04;3.05;;;1.88;;
17091;SDS011;8661;45.700;4.880;2024-03-22T12:54:30;3.78;;;2.55;;
17091;SDS011;8661;45.700;4.880;2024-03-22T12:56:58;2.72;;;1.77;;
17091;SDS011;8661;45.700;4.880;2024-03-22T12:59:23;6.75;;;2.28;;
17091;SDS011;8661;45.700;4.880;2024-03-22T13:01:52;4.25;;;2.08;;
17091;SDS011;8661;45.700;4.880;2024-03-22T13:04:18;3.50;;;1.80;;
17091;SDS011;8661;45.700;4.880;2024-03-22T13:06:45;4.85;;;1.77;;
17091;SDS011;8661;45.700;4.880;2024-03-22T13:09:11;3.63;;;1.50;;
17091;SDS011;8661;45.700;4.880;2024-03-22T13:11:38;2.60;;;1.92;;
17091;SDS011;8661;45.700;4.880;2024-03-22T13:14:06;4.18;;;1.92;;
17091;SDS011;8661;45.700;4.880;2024-03-22T13:16:33;4.60;;;2.25;;
17091;SDS011;8661;45.700;4.880;2024-03-22T13:19:00;5.60;;;2.25;;
17091;SDS011;8661;45.700;4.880;2024-03-22T13:21:27;9.63;;;7.13;;
17091;SDS011;8661;45.700;4.880;2024-03-22T13:23:53;4.95;;;2.17;;
17091;SDS011;8661;45.700;4.880;2024-03-22T13:26:21;4.72;;;2.00;;
17091;SDS011;8661;45.700;4.880;2024-03-22T13:28:47;6.72;;;1.95;;
17091;SDS011;8661;45.700;4.880;2024-03-22T13:31:14;3.92;;;1.85;;
17091;SDS011;8661;45.700;4.880;2024-03-22T13:33:40;4.30;;;1.90;;
17091;SDS011;8661;45.700;4.880;2024-03-22T13:36:09;4.35;;;2.13;;
17091;SDS011;8661;45.700;4.880;2024-03-22T13:38:35;3.83;;;2.10;;
17091;SDS011;8661;45.700;4.880;2024-03-22T13:41:02;4.20;;;2.08;;
17091;SDS011;8661;45.700;4.880;2024-03-22T13:43:29;3.75;;;2.10;;
17091;SDS011;8661;45.700;4.880;2024-03-22T13:45:56;4.30;;;2.03;;
17091;SDS011;8661;45.700;4.880;2024-03-22T13:48:23;5.15;;;2.40;;
17091;SDS011;8661;45.700;4.880;2024-03-22T13:50:51;4.28;;;2.63;;
17091;SDS011;8661;45.700;4.880;2024-03-22T13:53:19;4.28;;;2.47;;
17091;SDS011;8661;45.700;4.880;2024-03-22T13:55:48;4.70;;;2.13;;
17091;SDS011;8661;45.700;4.880;2024-03-22T13:58:15;4.50;;;1.85;;
17091;SDS011;8661;45.700;4.880;2024-03-22T14:00:42;6.03;;;1.77;;
17091;SDS011;8661;45.700;4.880;2024-03-22T14:03:08;4.40;;;2.00;;
17091;SDS011;8661;45.700;4.880;2024-03-22T14:05:35;6.82;;;1.73;;
17091;SDS011;8661;45.700;4.880;2024-03-22T14:08:01;3.28;;;2.08;;
17091;SDS011;8661;45.700;4.880;2024-03-22T14:10:30;2.47;;;1.75;;
17091;SDS011;8661;45.700;4.880;2024-03-22T14:12:56;5.00;;;2.17;;
17091;SDS011;8661;45.700;4.880;2024-03-22T14:15:26;4.68;;;2.00;;
17091;SDS011;8661;45.700;4.880;2024-03-22T14:17:57;3.95;;;1.90;;
17091;SDS011;8661;45.700;4.880;2024-03-22T14:20:24;4.20;;;1.77;;
17091;SDS011;8661;45.700;4.880;2024-03-22T14:22:50;3.83;;;1.77;;
17091;SDS011;8661;45.700;4.880;2024-03-22T14:25:17;1.95;;;1.40;;
17091;SDS011;8661;45.700;4.880;2024-03-22T14:27:45;2.65;;;1.50;;
17091;SDS011;8661;45.700;4.880;2024-03-22T14:30:12;4.05;;;2.00;;
17091;SDS011;8661;45.700;4.880;2024-03-22T14:32:39;3.60;;;1.60;;
17091;SDS011;8661;45.700;4.880;2024-03-22T14:35:07;5.38;;;1.50;;
17091;SDS011;8661;45.700;4.880;2024-03-22T14:37:33;3.45;;;1.65;;
17091;SDS011;8661;45.700;4.880;2024-03-22T14:40:00;3.53;;;1.58;;
17091;SDS011;8661;45.700;4.880;2024-03-22T14:42:30;6.22;;;1.67;;
17091;SDS011;8661;45.700;4.880;2024-03-22T14:44:58;5.47;;;1.30;;
17091;SDS011;8661;45.700;4.880;2024-03-22T14:47:24;2.88;;;1.30;;
17091;SDS011;8661;45.700;4.880;2024-03-22T14:49:51;3.25;;;1.67;;
17091;SDS011;8661;45.700;4.880;2024-03-22T14:52:17;6.22;;;1.50;;
17091;SDS011;8661;45.700;4.880;2024-03-22T14:54:44;4.00;;;1.42;;
17091;SDS011;8661;45.700;4.880;2024-03-22T14:57:10;2.33;;;2.03;;